Time;durP1;ratioP1;P1;durP2;ratioP2;P2;SDS_P1;SDS_P2;PMS_P1;PMS_P2;Temp;Humidity;BMP_temperature;BMP_pressure;BME280_temperature;BME280_humidity;BME280_pressure;Samples;Min_cycle;Max_cycle;Signal;HPM_P1;HPM_P2
2023/02/05 00:01:49;;;;;;;;;9.00;7.00;;;;;11.25;60.69;103493.88;4955466;28;46602;-58
2023/02/05 00:04:15;;;;;;;;;5.75;4.00;;;;;11.22;60.76;103497.31;4939550;28;45280;-58
2023/02/05 00:06:40;;;;;;;;;4.50;4.50;;;;;11.25;60.50;103512.28;4956496;28;45365;-58
2023/02/05 00:09:06;;;;;;;;;4.50;4.50;;;;;11.21;60.60;103506.94;4957087;28;46101;-58
2023/02/05 00:11:31;;;;;;;;;9.50;5.75;;;;;11.18;60.63;103503.31;4956896;28;45730;-58
2023/02/05 00:13:56;;;;;;;;;5.00;3.75;;;;;11.19;60.49;103492.84;4956336;28;45359;-58
2023/02/05 00:16:23;;;;;;;;;4.75;4.75;;;;;11.21;60.37;103495.53;4956876;28;46031;-58
2023/02/05 00:18:49;;;;;;;;;5.50;5.00;;;;;11.21;60.33;103498.16;4955143;28;47366;-58
2023/02/05 00:21:15;;;;;;;;;4.00;4.00;;;;;11.20;60.29;103504.25;4939323;28;45457;-58
2023/02/05 00:23:41;;;;;;;;;3.25;3.25;;;;;11.19;60.13;103494.56;4957926;28;45370;-58
2023/02/05 00:26:07;;;;;;;;;4.75;4.00;;;;;11.18;60.21;103498.97;4959932;28;45286;-58
2023/02/05 00:28:34;;;;;;;;;4.25;3.00;;;;;11.18;60.16;103495.41;4957363;28;47915;-58
2023/02/05 00:30:59;;;;;;;;;7.00;4.25;;;;;11.18;60.12;103492.78;4959067;28;45999;-58
2023/02/05 00:33:25;;;;;;;;;4.00;3.75;;;;;11.15;60.05;103497.97;4958923;28;45398;-58
2023/02/05 00:35:50;;;;;;;;;8.00;4.25;;;;;11.15;60.11;103492.72;4960290;28;45228;-58
2023/02/05 00:38:16;;;;;;;;;4.00;4.00;;;;;11.14;59.92;103490.94;4960206;28;45404;-58
2023/02/05 00:40:42;;;;;;;;;3.00;2.75;;;;;11.12;59.81;103488.25;4960212;28;45307;-58
2023/02/05 00:43:08;;;;;;;;;3.75;3.75;;;;;11.09;59.76;103480.28;4959897;28;45234;-58
2023/02/05 00:45:34;;;;;;;;;3.00;3.00;;;;;11.08;59.93;103491.66;4960087;28;45517;-58
2023/02/05 00:48:01;;;;;;;;;4.00;3.00;;;;;11.08;59.82;103498.66;4961405;28;46966;-58
2023/02/05 00:50:26;;;;;;;;;4.00;4.00;;;;;11.03;59.72;103486.28;4946092;28;45344;-58
2023/02/05 00:52:51;;;;;;;;;3.75;3.00;;;;;11.03;59.62;103488.00;4963382;28;45434;-58
2023/02/05 00:55:17;;;;;;;;;4.00;3.25;;;;;11.01;59.67;103489.72;4963556;28;45428;-58
2023/02/05 00:57:42;;;;;;;;;2.25;2.00;;;;;10.96;59.62;103489.56;4962941;28;45247;-58
2023/02/05 01:00:08;;;;;;;;;4.00;4.00;;;;;10.96;59.54;103489.56;4963367;28;45331;-58
2023/02/05 01:02:33;;;;;;;;;3.00;3.00;;;;;10.95;59.94;103487.78;4963500;28;45330;-58
2023/02/05 01:04:59;;;;;;;;;3.25;3.25;;;;;10.94;59.57;103491.25;4963126;28;45323;-58
2023/02/05 01:07:24;;;;;;;;;3.00;3.00;;;;;10.92;59.44;103479.81;4962322;28;45295;-58
2023/02/05 01:09:49;;;;;;;;;2.25;2.25;;;;;10.92;59.53;103476.28;4963253;28;49292;-58
2023/02/05 01:12:15;;;;;;;;;3.50;3.50;;;;;10.91;59.34;103471.91;4962776;28;45355;-58
2023/02/05 01:14:40;;;;;;;;;3.25;3.25;;;;;10.90;59.47;103465.72;4963302;28;45206;-58
2023/02/05 01:17:06;;;;;;;;;5.75;4.00;;;;;10.91;59.38;103458.75;4963030;28;45306;-58
2023/02/05 01:19:35;;;;;;;;;3.50;3.50;;;;;10.91;59.42;103464.00;4945677;28;45200;-58
2023/02/05 01:22:00;;;;;;;;;3.50;3.25;;;;;10.90;59.32;103452.56;4945615;28;45283;-58
2023/02/05 01:24:26;;;;;;;;;2.00;2.00;;;;;10.89;59.26;103456.94;4962991;28;45371;-58
2023/02/05 01:26:54;;;;;;;;;3.00;3.00;;;;;10.90;59.30;103452.56;4962554;28;46175;-58
2023/02/05 01:29:20;;;;;;;;;4.75;3.75;;;;;10.91;59.27;103451.72;4962715;28;45424;-58
2023/02/05 01:31:45;;;;;;;;;6.75;4.50;;;;;10.88;59.23;103444.63;4962779;28;45227;-58
2023/02/05 01:34:10;;;;;;;;;3.00;3.00;;;;;10.90;59.30;103447.31;4962784;28;51126;-58
2023/02/05 01:36:36;;;;;;;;;5.50;3.50;;;;;10.91;59.22;103459.63;4962385;28;51379;-58
2023/02/05 01:39:01;;;;;;;;;5.00;3.00;;;;;10.91;59.19;103464.00;4962568;28;54538;-58
2023/02/05 01:41:26;;;;;;;;;5.25;5.00;;;;;10.91;59.13;103471.91;4962588;28;45273;-58
2023/02/05 01:44:21;;;;;;;;;4.50;3.00;;;;;10.88;59.10;103462.19;4962614;28;45437;-58
2023/02/05 01:46:47;;;;;;;;;5.25;4.00;;;;;10.88;59.10;103459.53;4950583;28;45307;-58
2023/02/05 01:49:20;;;;;;;;;0.00;0.00;;;;;10.88;59.10;103454.28;4962695;28;45306;-58
2023/02/05 01:51:47;;;;;;;;;4.00;2.75;;;;;10.87;59.01;103449.88;4962761;28;45353;-58
2023/02/05 01:54:15;;;;;;;;;2.00;2.00;;;;;10.86;58.99;103441.06;4962328;28;45544;-58
2023/02/05 01:57:05;;;;;;;;;2.75;2.75;;;;;10.87;59.03;103449.88;4962256;28;46034;-58
2023/02/05 01:59:35;;;;;;;;;3.75;3.50;;;;;10.84;58.67;103441.88;4961415;28;45393;-58
2023/02/05 02:02:06;;;;;;;;;2.25;2.25;;;;;10.84;58.76;103448.03;4962608;28;45481;-58
2023/02/05 02:04:37;;;;;;;;;3.00;3.00;;;;;10.82;58.62;103439.19;4962215;28;45494;-58
2023/02/05 02:07:04;;;;;;;;;1.00;1.00;;;;;10.80;58.78;103419.84;4962290;28;46351;-57
2023/02/05 02:09:29;;;;;;;;;2.50;2.00;;;;;10.78;58.34;103425.91;4962346;28;45320;-58
2023/02/05 02:11:56;;;;;;;;;1.50;1.50;;;;;10.75;58.39;103425.84;4962298;28;45358;-58
2023/02/05 02:14:23;;;;;;;;;2.00;2.00;;;;;10.73;58.38;103413.53;4962145;28;45226;-57
2023/02/05 02:16:50;;;;;;;;;2.00;2.00;;;;;10.71;58.50;103404.69;4962308;28;45236;-58
2023/02/05 02:19:47;;;;;;;;;3.50;2.50;;;;;10.71;58.32;103402.06;4962174;28;45335;-58
2023/02/05 02:22:28;;;;;;;;;3.25;2.00;;;;;10.70;58.26;103396.78;4962154;28;45457;-57
2023/02/05 02:25:29;;;;;;;;;2.25;2.25;;;;;10.69;58.27;103401.16;4961928;28;45412;-57
2023/02/05 02:28:03;;;;;;;;;2.00;1.00;;;;;10.66;58.16;103384.41;4944257;28;47530;-58
2023/02/05 02:30:55;;;;;;;;;2.25;2.25;;;;;10.66;58.06;103387.91;4949265;28;45434;-57
2023/02/05 02:34:14;;;;;;;;;2.00;1.50;;;;;10.64;57.94;103394.88;4961952;28;45258;-58
2023/02/05 02:36:42;;;;;;;;;3.00;2.25;;;;;10.62;58.09;103388.69;4921184;28;46350;-57
2023/02/05 02:39:49;;;;;;;;;2.00;2.00;;;;;10.62;57.96;103388.69;4953824;28;46448;-57
2023/02/05 02:42:22;;;;;;;;;3.00;2.00;;;;;10.61;57.86;103383.38;4961558;28;45240;-58
2023/02/05 02:44:55;;;;;;;;;3.00;2.00;;;;;10.60;57.83;103393.00;4961574;28;45457;-57
2023/02/05 02:47:25;;;;;;;;;1.25;1.25;;;;;10.59;57.85;103414.91;4944459;28;45329;-57
2023/02/05 02:49:58;;;;;;;;;3.00;2.75;;;;;10.58;58.00;103431.53;4961470;28;45379;-56
2023/02/05 02:52:26;;;;;;;;;2.00;0.75;;;;;10.56;57.68;103431.47;4961613;28;45247;-56
2023/02/05 02:54:56;;;;;;;;;4.75;3.50;;;;;10.54;57.86;103432.25;4961671;28;45326;-57
2023/02/05 02:57:25;;;;;;;;;3.25;3.00;;;;;10.54;57.80;103448.03;4961122;28;45466;-56
2023/02/05 02:59:53;;;;;;;;;3.00;3.00;;;;;10.53;57.60;103457.66;4961635;28;46291;-56
2023/02/05 03:02:20;;;;;;;;;3.00;2.75;;;;;10.47;57.81;103446.09;4961324;28;45472;-57
2023/02/05 03:04:54;;;;;;;;;3.00;2.25;;;;;10.52;57.67;103441.84;4961486;28;45357;-56
2023/02/05 03:07:32;;;;;;;;;4.00;3.00;;;;;10.50;57.40;103446.16;4961339;28;45290;-56
2023/02/05 03:10:08;;;;;;;;;4.00;3.75;;;;;10.51;57.63;103442.69;4961109;28;45184;-56
2023/02/05 03:12:34;;;;;;;;;7.00;4.00;;;;;10.48;57.45;103448.75;4943478;28;45325;-56
2023/02/05 03:14:59;;;;;;;;;5.50;4.00;;;;;10.47;57.19;103454.84;4960728;28;45282;-55
2023/02/05 03:17:26;;;;;;;;;3.00;3.00;;;;;10.46;57.24;103450.44;4961308;28;45318;-56
2023/02/05 03:20:21;;;;;;;;;7.00;3.50;;;;;10.41;57.48;103438.91;4961342;28;45394;-56
2023/02/05 03:22:46;;;;;;;;;2.00;2.00;;;;;10.42;57.18;103437.19;4957346;28;45512;-56
2023/02/05 03:25:12;;;;;;;;;3.00;3.00;;;;;10.42;57.30;103447.69;4940381;28;45858;-55
2023/02/05 03:27:38;;;;;;;;;4.00;3.00;;;;;10.37;57.50;103448.44;4956997;28;45520;-56
2023/02/05 03:30:05;;;;;;;;;3.00;3.00;;;;;10.34;57.64;103453.56;4957568;28;45429;-56
2023/02/05 03:32:43;;;;;;;;;1.25;1.25;;;;;10.35;57.47;103452.75;4957953;28;45377;-56
2023/02/05 03:35:45;;;;;;;;;3.75;1.50;;;;;10.33;57.46;103446.53;4956617;28;45519;-56
2023/02/05 03:38:41;;;;;;;;;3.25;1.75;;;;;10.32;57.60;103463.13;4905820;28;45409;-55
2023/02/05 03:41:07;;;;;;;;;3.25;3.25;;;;;10.32;57.77;103463.13;4956326;28;46260;-56
2023/02/05 03:43:59;;;;;;;;;3.25;2.50;;;;;10.30;57.53;103456.97;4956614;28;45236;-56
2023/02/05 03:46:39;;;;;;;;;4.00;2.50;;;;;10.27;57.44;103448.97;4956378;28;45377;-54
2023/02/05 03:49:41;;;;;;;;;1.75;1.75;;;;;10.27;57.53;103448.09;4956241;28;45783;-56
2023/02/05 03:52:14;;;;;;;;;4.00;2.75;;;;;10.26;57.68;103457.69;4955119;28;45477;-55
2023/02/05 03:54:50;;;;;;;;;6.75;4.00;;;;;10.27;57.46;103456.84;4958149;28;45373;-57
2023/02/05 03:57:31;;;;;;;;;2.25;2.25;;;;;10.28;57.67;103456.00;4960201;28;45550;-54
2023/02/05 03:59:58;;;;;;;;;2.50;2.50;;;;;10.28;57.69;103458.66;4959181;28;45488;-55
2023/02/05 04:02:23;;;;;;;;;6.00;4.50;;;;;10.27;57.69;103448.09;4960312;28;46193;-54
2023/02/05 04:04:49;;;;;;;;;6.00;4.50;;;;;10.31;57.56;103449.97;4959256;28;45442;-56
2023/02/05 04:07:14;;;;;;;;;4.00;4.00;;;;;10.28;57.49;103457.75;4960792;28;45491;-55
2023/02/05 04:09:39;;;;;;;;;4.00;4.00;;;;;10.25;57.83;103453.28;4960768;28;45619;-56
2023/02/05 04:12:05;;;;;;;;;3.00;2.25;;;;;10.25;57.71;103459.44;4960250;28;45259;-56
2023/02/05 04:14:30;;;;;;;;;6.25;3.75;;;;;10.24;57.67;103455.03;4960604;28;45235;-56
2023/02/05 04:16:55;;;;;;;;;5.00;4.00;;;;;10.22;57.71;103445.31;4943349;28;45337;-56
2023/02/05 04:19:21;;;;;;;;;5.00;4.00;;;;;10.25;57.53;103463.78;4960584;28;45289;-56
2023/02/05 04:21:46;;;;;;;;;4.00;4.00;;;;;10.25;57.69;103461.16;4960387;28;45240;-55
2023/02/05 04:24:11;;;;;;;;;4.75;3.00;;;;;10.24;58.06;103465.53;4963604;28;45156;-56
2023/02/05 04:26:37;;;;;;;;;5.00;3.75;;;;;10.25;57.78;103463.78;4963445;28;55911;-55
2023/02/05 04:29:02;;;;;;;;;8.25;4.75;;;;;10.23;57.98;103458.50;4946456;28;45467;-56
2023/02/05 04:31:27;;;;;;;;;3.00;3.00;;;;;10.26;57.82;103462.94;4963519;28;46466;-55
2023/02/05 04:33:53;;;;;;;;;3.50;3.50;;;;;10.23;57.86;103460.25;4963899;28;45244;-56
2023/02/05 04:36:18;;;;;;;;;3.00;3.00;;;;;10.23;57.83;103463.75;4946083;28;48759;-55
2023/02/05 04:38:43;;;;;;;;;4.00;3.00;;;;;10.23;58.08;103478.63;4963752;28;49280;-55
2023/02/05 04:41:09;;;;;;;;;6.25;6.25;;;;;10.23;57.95;103476.00;4946072;28;46963;-56
2023/02/05 04:43:34;;;;;;;;;3.50;2.00;;;;;10.20;58.04;103470.66;4963536;28;45219;-56
2023/02/05 04:46:07;;;;;;;;;5.75;4.00;;;;;10.21;57.94;103473.34;4945840;28;45269;-56
2023/02/05 04:48:33;;;;;;;;;6.25;3.00;;;;;10.24;58.07;103475.19;4963640;28;45437;-56
2023/02/05 04:50:59;;;;;;;;;5.00;3.25;;;;;10.22;57.89;103484.75;4963375;28;45361;-55
2023/02/05 04:53:24;;;;;;;;;6.25;4.00;;;;;10.25;58.02;103487.44;4963624;28;45211;-56
2023/02/05 04:55:50;;;;;;;;;3.75;3.75;;;;;10.25;58.03;103484.81;4963495;28;45296;-56
2023/02/05 04:58:15;;;;;;;;;4.00;4.00;;;;;10.25;58.10;103483.09;4962995;28;45566;-55
2023/02/05 05:00:40;;;;;;;;;6.00;4.75;;;;;10.24;58.02;103490.94;4963093;28;45335;-56
2023/02/05 05:03:06;;;;;;;;;3.50;3.50;;;;;10.22;58.17;103487.38;4963344;28;45379;-55
2023/02/05 05:05:34;;;;;;;;;4.00;4.00;;;;;10.22;58.14;103479.47;4963462;28;45665;-56
2023/02/05 05:07:59;;;;;;;;;5.75;5.75;;;;;10.20;58.23;103470.66;4963322;28;45539;-56
2023/02/05 05:10:25;;;;;;;;;6.25;5.00;;;;;10.20;58.26;103463.66;4962969;28;45366;-56
2023/02/05 05:12:51;;;;;;;;;5.00;4.50;;;;;10.17;58.17;103471.44;4962891;28;45278;-56
2023/02/05 05:15:17;;;;;;;;;5.75;4.25;;;;;10.16;58.23;103468.78;4945906;28;45482;-55
2023/02/05 05:17:43;;;;;;;;;7.25;7.25;;;;;10.13;58.29;103476.56;4963104;28;45524;-56
2023/02/05 05:20:09;;;;;;;;;8.75;5.25;;;;;10.11;58.30;103473.88;4962959;28;46289;-55
2023/02/05 05:22:34;;;;;;;;;5.00;5.00;;;;;10.08;58.14;103463.28;4962989;28;45385;-56
2023/02/05 05:24:59;;;;;;;;;3.00;3.00;;;;;10.07;58.20;103469.38;4963044;28;45188;-55
2023/02/05 05:27:25;;;;;;;;;7.75;6.75;;;;;10.06;58.34;103479.00;4962601;28;49556;-55
2023/02/05 05:29:50;;;;;;;;;7.50;6.50;;;;;10.04;58.44;103483.31;4962937;28;45142;-56
2023/02/05 05:32:15;;;;;;;;;6.25;6.00;;;;;10.01;58.44;103487.56;4962674;28;45355;-55
2023/02/05 05:34:41;;;;;;;;;6.50;6.00;;;;;10.00;58.30;103504.16;4961745;28;45322;-56
2023/02/05 05:37:06;;;;;;;;;7.25;6.25;;;;;9.92;58.52;103490.78;4962552;28;45260;-56
2023/02/05 05:44:59;;;;;;;;;6.00;6.00;;;;;9.95;58.32;103498.78;4962532;28;45233;-54
2023/02/05 05:47:24;;;;;;;;;7.00;6.25;;;;;9.91;58.52;103502.13;4962648;28;45367;-56
2023/02/05 05:49:50;;;;;;;;;6.25;5.00;;;;;9.93;58.46;103517.09;4945170;28;47100;-55
2023/02/05 05:52:15;;;;;;;;;6.00;5.25;;;;;9.93;58.42;103517.09;4962522;28;45371;-56
2023/02/05 05:54:41;;;;;;;;;10.25;8.25;;;;;9.90;58.52;103516.13;4962508;28;45251;-55
2023/02/05 05:57:07;;;;;;;;;9.00;7.00;;;;;9.93;58.61;103525.00;4962142;28;45325;-55
2023/02/05 05:59:32;;;;;;;;;7.50;6.25;;;;;9.93;58.51;103527.63;4962250;28;45359;-55
2023/02/05 06:02:00;;;;;;;;;8.75;6.50;;;;;9.93;58.64;103513.59;4962329;28;45342;-55
2023/02/05 06:04:26;;;;;;;;;10.50;6.00;;;;;9.92;58.51;103510.09;4962262;28;45358;-56
2023/02/05 06:06:51;;;;;;;;;5.75;4.75;;;;;9.92;58.58;103514.44;4962480;28;45339;-55
2023/02/05 06:09:16;;;;;;;;;5.00;5.00;;;;;9.93;58.77;103508.34;4962249;28;46126;-54
2023/02/05 06:11:41;;;;;;;;;9.75;7.00;;;;;9.90;58.54;103505.63;4961751;28;45234;-54
2023/02/05 06:14:07;;;;;;;;;8.25;7.25;;;;;9.90;58.76;103509.13;4961823;28;48393;-59
2023/02/05 06:16:32;;;;;;;;;3.50;3.50;;;;;9.91;58.88;103510.94;4962143;28;45296;-54
2023/02/05 06:18:58;;;;;;;;;7.00;6.75;;;;;9.91;58.75;103512.66;4961654;28;45360;-55
2023/02/05 06:21:23;;;;;;;;;7.50;7.00;;;;;9.91;58.86;103515.28;4962071;28;45235;-54
2023/02/05 06:23:48;;;;;;;;;11.75;8.25;;;;;9.88;58.97;103505.56;4961939;28;45436;-53
2023/02/05 06:26:13;;;;;;;;;8.25;7.50;;;;;9.91;58.73;103518.81;4960411;28;50723;-54
2023/02/05 06:28:39;;;;;;;;;9.25;8.00;;;;;9.91;59.01;103520.53;4961609;28;46349;-55
2023/02/05 06:31:04;;;;;;;;;9.25;9.25;;;;;9.91;59.06;103513.56;4961957;28;45459;-56
2023/02/05 06:33:29;;;;;;;;;8.00;8.00;;;;;9.92;58.89;103511.81;4944388;28;45809;-56
2023/02/05 06:35:55;;;;;;;;;9.50;9.50;;;;;9.91;59.13;103510.94;4961436;28;45378;-56
2023/02/05 06:38:20;;;;;;;;;8.50;8.50;;;;;9.89;58.92;103504.72;4961172;28;46152;-55
2023/02/05 06:40:46;;;;;;;;;8.50;7.50;;;;;9.95;58.93;103503.13;4951279;28;52810;-56
2023/02/05 06:43:11;;;;;;;;;12.00;9.75;;;;;9.93;59.05;103503.97;4959911;28;45346;-55
2023/02/05 06:45:37;;;;;;;;;9.75;9.00;;;;;9.92;59.09;103503.94;4959403;28;48154;-55
2023/02/05 06:48:02;;;;;;;;;8.00;5.75;;;;;9.91;59.11;103496.88;4959885;28;46930;-55
2023/02/05 06:50:28;;;;;;;;;7.25;6.00;;;;;9.90;59.20;103495.13;4960404;28;45350;-54
2023/02/05 06:52:53;;;;;;;;;10.00;8.75;;;;;9.88;59.22;103492.44;4960256;28;45335;-54
2023/02/05 06:55:19;;;;;;;;;9.00;8.25;;;;;9.89;59.26;103494.22;4951389;28;45704;-55
2023/02/05 06:57:44;;;;;;;;;13.50;10.50;;;;;9.90;59.18;103501.25;4949253;28;45858;-55
2023/02/05 07:00:10;;;;;;;;;10.00;7.00;;;;;9.91;59.17;103507.41;4956964;28;46948;-55
2023/02/05 07:02:35;;;;;;;;;11.75;8.75;;;;;9.90;59.58;103497.75;4957588;28;45251;-57
2023/02/05 07:05:01;;;;;;;;;9.25;7.50;;;;;9.89;59.27;103504.72;4957806;28;45763;-57
2023/02/05 07:07:27;;;;;;;;;10.25;9.50;;;;;9.88;59.34;103504.69;4956899;28;45406;-56
2023/02/05 07:09:52;;;;;;;;;10.75;8.25;;;;;9.90;59.34;103505.63;4957073;28;45889;-54
2023/02/05 07:12:17;;;;;;;;;12.50;8.00;;;;;9.89;59.20;103516.97;4941235;28;47028;-56
2023/02/05 07:14:43;;;;;;;;;8.25;8.25;;;;;9.86;59.29;103514.22;4954396;28;46574;-57
2023/02/05 07:17:08;;;;;;;;;11.25;9.25;;;;;9.83;59.51;103509.78;4956164;28;45897;-57
2023/02/05 07:19:35;;;;;;;;;8.50;7.75;;;;;9.83;59.52;103515.03;4956465;28;45422;-57
2023/02/05 07:22:00;;;;;;;;;12.00;9.50;;;;;9.80;59.24;103511.41;4956690;28;45250;-57
2023/02/05 07:24:25;;;;;;;;;12.25;8.50;;;;;9.79;59.56;103512.28;4956288;28;45377;-56
2023/02/05 07:26:51;;;;;;;;;7.50;7.50;;;;;9.75;59.57;103512.16;4953683;28;46259;-57
2023/02/05 07:29:16;;;;;;;;;10.00;7.00;;;;;9.78;59.61;103513.97;4959542;28;49412;-57
2023/02/05 07:31:41;;;;;;;;;16.50;10.50;;;;;9.77;59.56;103517.44;4958780;28;45474;-58
2023/02/05 07:34:07;;;;;;;;;8.50;8.50;;;;;9.74;59.51;103517.34;4959371;28;45365;-58
2023/02/05 07:36:32;;;;;;;;;11.50;8.50;;;;;9.76;59.88;103529.69;4959602;28;45463;-58
2023/02/05 07:38:57;;;;;;;;;9.50;8.00;;;;;9.76;59.62;103526.19;4959864;28;45243;-58
2023/02/05 07:41:25;;;;;;;;;11.50;8.00;;;;;9.76;59.71;103524.44;4960346;28;45357;-58
2023/02/05 07:43:51;;;;;;;;;8.25;8.00;;;;;9.76;59.84;103515.69;4960760;28;45434;-58
2023/02/05 07:46:16;;;;;;;;;6.75;6.75;;;;;9.78;59.74;103528.88;4960570;28;45518;-58
2023/02/05 07:48:42;;;;;;;;;7.00;6.00;;;;;9.74;59.72;103515.59;4961077;28;45291;-58
2023/02/05 07:51:13;;;;;;;;;11.50;10.25;;;;;9.83;59.82;103529.91;4960797;28;45216;-58
2023/02/05 07:53:38;;;;;;;;;12.50;8.75;;;;;9.85;60.18;103523.84;4943602;28;46191;-58
2023/02/05 07:56:04;;;;;;;;;6.00;6.00;;;;;9.90;59.92;103532.78;4960400;28;45449;-58
2023/02/05 07:58:29;;;;;;;;;9.00;7.75;;;;;9.91;60.04;103534.56;4962787;28;45497;-58
2023/02/05 08:00:59;;;;;;;;;11.50;8.75;;;;;9.94;60.15;103539.03;4964261;28;45354;-55
2023/02/05 08:03:24;;;;;;;;;11.00;10.75;;;;;9.94;60.51;103544.28;4964186;28;45512;-54
2023/02/05 08:05:50;;;;;;;;;12.25;10.25;;;;;9.95;60.21;103546.06;4963979;28;46195;-56
2023/02/05 08:08:15;;;;;;;;;12.00;9.50;;;;;9.96;60.04;103555.75;4964358;28;45231;-55
2023/02/05 08:10:40;;;;;;;;;11.25;10.75;;;;;10.00;60.22;103559.34;4964237;28;45327;-56
2023/02/05 08:13:05;;;;;;;;;10.75;8.00;;;;;9.99;60.34;103562.84;4963728;28;45461;-55
2023/02/05 08:15:31;;;;;;;;;10.75;10.25;;;;;10.02;60.16;103557.69;4963971;28;45353;-52
2023/02/05 08:17:56;;;;;;;;;13.75;13.00;;;;;10.05;60.41;103563.94;4963929;28;50408;-54
2023/02/05 08:20:21;;;;;;;;;13.75;13.75;;;;;10.06;60.43;103556.91;4964106;28;45382;-53
2023/02/05 08:22:47;;;;;;;;;15.75;14.50;;;;;10.08;60.54;103555.25;4964028;28;45707;-55
2023/02/05 08:25:13;;;;;;;;;13.00;9.25;;;;;10.11;60.41;103562.34;4963713;28;47016;-54
2023/02/05 08:27:40;;;;;;;;;13.25;8.25;;;;;10.13;60.52;103563.28;4963506;28;45290;-55
2023/02/05 08:30:09;;;;;;;;;16.00;15.00;;;;;10.13;60.31;103561.53;4963830;28;45265;-53
2023/02/05 08:32:34;;;;;;;;;18.50;12.50;;;;;10.19;60.69;103555.59;4963539;28;45561;-53
2023/02/05 08:35:00;;;;;;;;;16.50;16.00;;;;;10.22;60.71;103572.34;4945946;28;51578;-55
2023/02/05 08:37:26;;;;;;;;;17.50;16.50;;;;;10.24;60.68;103568.03;4963728;28;45276;-52
2023/02/05 08:39:51;;;;;;;;;17.25;16.75;;;;;10.26;60.60;103575.97;4963751;28;45340;-52
2023/02/05 08:42:17;;;;;;;;;16.75;14.50;;;;;10.28;60.50;103570.78;4963182;28;45508;-54
2023/02/05 08:44:43;;;;;;;;;17.25;15.50;;;;;10.30;60.68;103563.81;4963259;28;46192;-53
2023/02/05 08:47:08;;;;;;;;;17.25;15.25;;;;;10.30;60.83;103564.72;4946214;28;45316;-54
2023/02/05 08:49:33;;;;;;;;;20.00;16.00;;;;;10.32;61.01;103567.41;4963638;28;45487;-55
2023/02/05 08:51:59;;;;;;;;;18.00;16.50;;;;;10.33;60.78;103569.19;4963516;28;45318;-53
2023/02/05 08:54:25;;;;;;;;;19.75;16.00;;;;;10.34;60.98;103574.50;4945785;28;47067;-55
2023/02/05 08:56:50;;;;;;;;;16.50;15.00;;;;;10.38;61.01;103576.41;4962811;28;45410;-54
2023/02/05 08:59:16;;;;;;;;;18.50;15.75;;;;;10.37;61.05;103585.13;4946259;28;45430;-55
2023/02/05 09:01:43;;;;;;;;;17.75;16.00;;;;;10.37;61.17;103577.25;4963216;28;45497;-55
2023/02/05 09:04:13;;;;;;;;;17.00;15.75;;;;;10.39;61.04;103575.56;4963105;28;45266;-55
2023/02/05 09:06:39;;;;;;;;;20.25;17.50;;;;;10.42;61.04;103573.88;4963159;28;45405;-54
2023/02/05 09:09:04;;;;;;;;;18.75;17.75;;;;;10.38;61.07;103568.50;4962923;28;45488;-54
2023/02/05 09:11:29;;;;;;;;;17.25;15.75;;;;;10.36;61.47;103569.31;4962983;28;53483;-55
2023/02/05 09:13:57;;;;;;;;;17.75;17.50;;;;;10.47;61.23;103578.44;4962684;28;45326;-55
2023/02/05 09:16:23;;;;;;;;;22.75;18.00;;;;;10.50;61.43;103582.88;4963222;28;45326;-54
2023/02/05 09:18:49;;;;;;;;;18.25;16.00;;;;;10.53;61.21;103580.38;4963112;28;45283;-56
2023/02/05 09:21:14;;;;;;;;;18.00;16.25;;;;;10.56;61.34;103577.81;4963093;28;45477;-54
2023/02/05 09:23:40;;;;;;;;;17.25;16.75;;;;;10.58;61.32;103584.03;4962968;28;46242;-55
2023/02/05 09:26:07;;;;;;;;;22.00;20.50;;;;;10.60;61.31;103587.59;4962818;28;45216;-55
2023/02/05 09:28:32;;;;;;;;;19.00;17.75;;;;;10.62;61.54;103590.28;4962736;28;45332;-54
2023/02/05 09:30:57;;;;;;;;;17.25;14.25;;;;;10.61;61.52;103581.50;4962769;28;45307;-54
2023/02/05 09:33:23;;;;;;;;;20.25;18.00;;;;;10.61;61.50;103576.22;4962771;28;46117;-55
2023/02/05 09:35:48;;;;;;;;;16.00;13.00;;;;;10.64;61.65;103586.84;4962361;28;54473;-55
2023/02/05 09:38:14;;;;;;;;;18.75;18.00;;;;;10.66;61.66;103586.91;4962797;28;45295;-54
2023/02/05 09:40:58;;;;;;;;;18.75;17.50;;;;;10.66;61.61;103593.03;4962829;28;45421;-55
2023/02/05 09:43:44;;;;;;;;;19.25;16.50;;;;;10.68;61.75;103593.09;4962220;28;46076;-55
2023/02/05 09:46:20;;;;;;;;;21.25;21.00;;;;;10.70;61.83;103599.28;4962483;28;45518;-55
2023/02/05 09:48:57;;;;;;;;;15.25;12.00;;;;;10.70;61.86;103599.28;4962817;28;45311;-55
2023/02/05 09:51:44;;;;;;;;;16.50;12.50;;;;;10.72;61.98;103597.59;4962399;28;45521;-55
2023/02/05 09:54:21;;;;;;;;;13.75;13.00;;;;;10.70;61.72;103596.66;4944803;28;46354;-57
2023/02/05 09:56:49;;;;;;;;;11.75;11.25;;;;;10.76;61.92;103610.00;4961928;28;45444;-56
2023/02/05 09:59:22;;;;;;;;;14.00;13.75;;;;;10.78;61.75;103604.78;4962417;28;45275;-56
2023/02/05 10:01:51;;;;;;;;;12.25;11.25;;;;;10.78;61.93;103610.03;4962304;28;45364;-56
2023/02/05 10:04:17;;;;;;;;;12.75;10.50;;;;;10.80;61.97;103601.34;4961992;28;45446;-55
2023/02/05 10:07:16;;;;;;;;;9.75;9.75;;;;;10.84;61.92;103592.72;4962286;28;45471;-55
2023/02/05 10:10:01;;;;;;;;;8.75;8.25;;;;;10.83;61.98;103593.56;4952468;28;45394;-55
2023/02/05 10:12:47;;;;;;;;;10.00;9.00;;;;;10.84;61.79;103589.19;4944285;28;45890;-55
2023/02/05 10:15:29;;;;;;;;;7.25;7.25;;;;;10.84;61.89;103584.84;4962100;28;47166;-54
2023/02/05 10:18:07;;;;;;;;;6.75;6.75;;;;;10.83;61.91;103600.53;4962186;28;45327;-55
2023/02/05 10:20:50;;;;;;;;;8.00;6.50;;;;;10.85;61.82;103591.84;4961315;28;45269;-54
2023/02/05 10:23:43;;;;;;;;;10.25;7.50;;;;;10.89;61.88;103595.47;4961900;28;45680;-55
2023/02/05 10:26:11;;;;;;;;;5.25;5.25;;;;;10.92;61.89;103605.19;4961766;28;45464;-55
2023/02/05 10:28:44;;;;;;;;;7.50;7.25;;;;;10.92;61.89;103605.19;4953823;28;46558;-55
2023/02/05 10:31:15;;;;;;;;;2.50;2.50;;;;;10.90;61.83;103618.31;4949908;28;45476;-55
2023/02/05 10:33:49;;;;;;;;;4.00;4.00;;;;;10.96;61.70;103626.41;4957865;28;45711;-54
2023/02/05 10:36:20;;;;;;;;;7.00;5.50;;;;;10.96;61.53;103615.00;4956248;28;47447;-55
2023/02/05 10:38:49;;;;;;;;;2.50;2.50;;;;;10.94;61.69;103617.56;4958106;28;45430;-58
2023/02/05 10:41:20;;;;;;;;;3.00;3.00;;;;;10.96;61.88;103629.03;4957469;28;45453;-55
2023/02/05 10:43:58;;;;;;;;;2.50;1.50;;;;;10.96;61.42;103642.19;4957875;28;45586;-54
2023/02/05 10:46:31;;;;;;;;;2.25;2.00;;;;;10.96;61.40;103657.09;4957806;28;45462;-54
2023/02/05 10:49:03;;;;;;;;;1.00;1.00;;;;;11.00;61.16;103659.84;4958201;28;45508;-55
2023/02/05 10:51:38;;;;;;;;;1.00;1.00;;;;;11.04;61.12;103666.09;4957770;28;45414;-55
2023/02/05 10:54:05;;;;;;;;;2.00;2.00;;;;;11.15;60.92;103655.91;4940042;28;45489;-55
2023/02/05 10:56:31;;;;;;;;;3.00;3.00;;;;;11.24;60.85;103636.84;4957225;28;46450;-55
2023/02/05 10:59:00;;;;;;;;;2.50;1.00;;;;;11.40;60.91;103627.66;4957717;28;45871;-55
2023/02/05 11:01:35;;;;;;;;;4.25;3.25;;;;;11.54;60.99;103607.88;4958090;28;45487;-55
2023/02/05 11:04:11;;;;;;;;;4.00;2.25;;;;;11.63;60.90;103594.94;4960605;28;45503;-55
2023/02/05 11:06:41;;;;;;;;;2.00;2.00;;;;;11.69;60.64;103603.00;4960687;28;46134;-55
2023/02/05 11:09:25;;;;;;;;;4.25;3.00;;;;;11.77;60.55;103605.84;4960463;28;45564;-55
2023/02/05 11:11:52;;;;;;;;;2.25;2.00;;;;;11.84;60.39;103599.00;4960348;28;45434;-53
2023/02/05 11:14:28;;;;;;;;;1.50;1.25;;;;;11.93;59.99;103587.81;4961164;28;45456;-54
2023/02/05 11:16:53;;;;;;;;;3.00;1.75;;;;;12.03;59.82;103601.28;4943804;28;47077;-58
2023/02/05 11:19:27;;;;;;;;;2.75;2.00;;;;;12.13;59.96;103605.03;4961334;28;45303;-54
2023/02/05 11:21:58;;;;;;;;;5.75;4.00;;;;;12.19;59.73;103605.19;4961538;28;45407;-54
2023/02/05 11:24:38;;;;;;;;;3.75;2.50;;;;;12.25;59.92;103609.75;4961626;28;45219;-54
2023/02/05 11:27:15;;;;;;;;;3.50;2.00;;;;;12.28;59.50;103623.00;4960709;28;47091;-55
2023/02/05 11:29:41;;;;;;;;;1.00;0.00;;;;;12.29;59.41;103645.88;4961081;28;45328;-53
2023/02/05 11:32:34;;;;;;;;;1.00;1.00;;;;;12.35;59.49;103624.94;4960938;28;45222;-55
2023/02/05 11:35:18;;;;;;;;;6.75;4.00;;;;;12.41;59.25;103618.91;4960876;28;45405;-55
2023/02/05 11:37:46;;;;;;;;;3.00;3.00;;;;;12.42;59.04;103618.03;4959199;28;47302;-54
2023/02/05 11:40:23;;;;;;;;;3.25;2.00;;;;;12.45;58.97;103601.41;4960976;28;45235;-55